Hunters Hill, Australia
Current Conditions -  °F | °C
As of 11:00 PM on Sunday 21 Dec 2014 (Local Time) from YMAY Reporting Station
Clear Clear  
Wind Chill: 24°   Ceiling: Unl
Heat Index: 24°   Visibility: 6mi
Dew Point: 12°   Wind: 3mph
Humidity: 47%   Direction: 120°ESE
Pressure: 29.91"   Gusts: NA
Location:  36.22°S, 147.53°E
Report Text: YMAY 211200Z AUTO 12003KT 9999 // NCD 24/12 Q1013
Loading
Personal Weather Stations






























Interactive Weather Map New forecast layout! Learn more

10-Day Weather Forecast

Advertisements
Track Severe Weather on mobile